createdAt,value
2017-04-21T00:00:42.990Z,29.25
2017-04-21T00:01:42.220Z,28.72
2017-04-21T00:02:41.334Z,30.33
2017-04-21T00:03:41.275Z,26.90
2017-04-21T00:04:40.451Z,30.53
2017-04-21T00:05:39.623Z,29.93
2017-04-21T00:06:38.726Z,28.80
2017-04-21T00:07:37.888Z,27.62
2017-04-21T00:08:37.030Z,28.05
2017-04-21T00:09:36.174Z,29.55
2017-04-21T00:10:35.342Z,29.35
2017-04-21T00:11:34.474Z,29.45
2017-04-21T00:12:34.674Z,30.22
2017-04-21T00:13:33.825Z,29.70
2017-04-21T00:14:33.546Z,31.38
2017-04-21T00:15:32.682Z,29.75
2017-04-21T00:16:32.708Z,29.83
2017-04-21T00:17:31.859Z,28.25
2017-04-21T00:18:30.999Z,30.22
2017-04-21T00:19:30.895Z,30.30
2017-04-21T00:20:30.855Z,30.28
2017-04-21T00:21:30.001Z,31.30
2017-04-21T00:22:29.146Z,29.55
2017-04-21T00:23:28.296Z,30.10
2017-04-21T00:24:27.463Z,29.37
2017-04-21T00:25:26.570Z,29.17
2017-04-21T00:26:25.698Z,29.78
2017-04-21T00:27:24.836Z,28.02
2017-04-21T00:28:23.927Z,29.12
2017-04-21T00:29:23.055Z,30.33
2017-04-21T00:30:22.423Z,28.58
2017-04-21T00:31:21.558Z,30.43
2017-04-21T00:32:20.690Z,29.25
2017-04-21T00:33:19.795Z,28.85
2017-04-21T00:34:18.946Z,29.10
2017-04-21T00:35:18.102Z,30.10
2017-04-21T00:36:17.938Z,29.48
2017-04-21T00:37:17.102Z,27.70
2017-04-21T00:38:16.240Z,31.37
2017-04-21T00:39:15.399Z,30.95
2017-04-21T00:40:14.590Z,30.52
2017-04-21T00:41:14.577Z,29.13
2017-04-21T00:42:13.737Z,29.67
2017-04-21T00:43:12.916Z,30.72
2017-04-21T00:44:12.059Z,29.07
2017-04-21T00:45:11.212Z,29.95
2017-04-21T00:46:11.115Z,26.73
2017-04-21T00:47:10.264Z,27.38
2017-04-21T00:48:09.443Z,29.10
2017-04-21T00:49:08.542Z,28.78
2017-04-21T00:50:07.727Z,28.33
2017-04-21T00:51:06.862Z,29.05
2017-04-21T00:52:06.022Z,29.37
2017-04-21T00:53:05.135Z,26.92
2017-04-21T00:54:04.254Z,28.42
2017-04-21T00:55:03.426Z,27.83
2017-04-21T00:56:02.574Z,28.22
2017-04-21T00:57:01.711Z,29.03
2017-04-21T00:58:00.810Z,28.92
2017-04-21T00:58:59.940Z,26.70
2017-04-21T00:59:59.082Z,26.75
2017-04-21T01:00:58.270Z,26.70
2017-04-21T01:01:57.399Z,28.93
2017-04-21T01:02:56.602Z,30.18
2017-04-21T01:03:55.746Z,29.17
2017-04-21T01:04:54.874Z,29.88
2017-04-21T01:05:53.990Z,28.82
2017-04-21T01:06:53.250Z,26.75
2017-04-21T01:07:52.364Z,30.62
2017-04-21T01:08:51.470Z,27.50
2017-04-21T01:09:50.604Z,30.05
2017-04-21T01:10:49.887Z,28.07
2017-04-21T01:11:49.043Z,28.62
2017-04-21T01:12:48.159Z,27.62
2017-04-21T01:13:47.347Z,29.12
2017-04-21T01:14:46.466Z,30.73
2017-04-21T01:15:45.630Z,29.85
2017-04-21T01:16:45.047Z,27.20
2017-04-21T01:17:44.948Z,26.75
2017-04-21T01:18:44.214Z,27.75
2017-04-21T01:19:43.358Z,27.85
2017-04-21T01:20:42.562Z,29.27
2017-04-21T01:21:42.479Z,28.88
2017-04-21T01:22:41.982Z,29.80
2017-04-21T01:23:41.107Z,30.55
2017-04-21T01:24:40.263Z,28.63
2017-04-21T01:25:39.370Z,28.07
2017-04-21T01:26:38.471Z,27.23
2017-04-21T01:27:37.642Z,27.47
2017-04-21T01:28:36.795Z,28.43
2017-04-21T01:29:35.899Z,26.40
2017-04-21T01:30:35.042Z,27.65
2017-04-21T01:31:34.922Z,26.52
2017-04-21T01:32:34.094Z,28.15
2017-04-21T01:33:33.339Z,25.63
2017-04-21T01:34:32.591Z,30.47
2017-04-21T01:35:31.894Z,27.40
2017-04-21T01:36:31.016Z,27.95
2017-04-21T01:37:30.144Z,27.48
2017-04-21T01:38:29.256Z,28.60
2017-04-21T01:39:28.335Z,28.18
2017-04-21T01:40:27.474Z,29.72
2017-04-21T01:41:26.575Z,27.55
2017-04-21T01:42:25.714Z,30.82
2017-04-21T01:43:24.854Z,29.43
2017-04-21T01:44:23.970Z,28.43
2017-04-21T01:45:23.102Z,28.35
2017-04-21T01:46:22.207Z,29.50
2017-04-21T01:47:22.195Z,26.72
2017-04-21T01:49:45.319Z,26.75
2017-04-21T01:50:44.556Z,27.03
2017-04-21T01:51:43.739Z,27.78
2017-04-21T01:52:42.883Z,28.77
2017-04-21T01:53:42.067Z,28.50
2017-04-21T01:54:41.181Z,31.52
2017-04-21T01:55:40.366Z,27.58
2017-04-21T01:56:40.227Z,26.72
2017-04-21T01:57:39.362Z,28.85
2017-04-21T01:58:38.519Z,28.43
2017-04-21T01:59:37.659Z,25.87
2017-04-21T02:00:36.759Z,26.58
2017-04-21T02:01:35.867Z,25.02
2017-04-21T02:02:34.978Z,29.22
2017-04-21T02:03:34.115Z,27.92
2017-04-21T02:04:33.266Z,27.53
2017-04-21T02:05:32.395Z,25.43
2017-04-21T02:06:32.283Z,27.58
2017-04-21T02:07:31.438Z,29.08
2017-04-21T02:08:30.623Z,29.72
2017-04-21T02:09:29.714Z,28.82
2017-04-21T02:10:28.934Z,28.02
2017-04-21T02:11:28.030Z,29.58
2017-04-21T02:12:27.130Z,28.48
2017-04-21T02:13:26.263Z,27.92
2017-04-21T02:14:25.819Z,29.20
2017-04-21T02:15:24.942Z,28.57
2017-04-21T02:16:24.084Z,28.08
2017-04-21T02:17:23.260Z,29.60
2017-04-21T02:18:22.374Z,29.82
2017-04-21T02:19:21.463Z,29.23
2017-04-21T02:20:23.038Z,29.15
2017-04-21T02:21:22.190Z,29.27
2017-04-21T02:22:21.302Z,28.42
2017-04-21T02:23:20.447Z,29.88
2017-04-21T02:24:19.627Z,29.43
2017-04-21T02:25:18.882Z,28.85
2017-04-21T02:26:18.046Z,27.53
2017-04-21T02:27:17.183Z,29.15
2017-04-21T02:28:16.350Z,29.87
2017-04-21T02:29:15.476Z,29.72
2017-04-21T02:30:14.674Z,31.35
2017-04-21T02:31:13.951Z,29.25
2017-04-21T02:32:13.055Z,28.52
2017-04-21T02:33:12.991Z,29.22
2017-04-21T02:34:12.170Z,31.50
2017-04-21T02:35:11.318Z,30.78
2017-04-21T02:36:10.479Z,29.13
2017-04-21T02:37:09.598Z,30.52
2017-04-21T02:38:08.758Z,30.18
2017-04-21T02:39:07.878Z,30.20
2017-04-21T02:40:07.011Z,31.07
2017-04-21T02:41:06.134Z,30.60
2017-04-21T02:42:05.311Z,35.60
2017-04-21T02:43:04.436Z,29.00
2017-04-21T02:44:03.615Z,30.35
2017-04-21T02:45:02.720Z,31.40
2017-04-21T02:46:01.855Z,29.65
2017-04-21T02:47:01.838Z,32.20
2017-04-21T02:48:00.939Z,29.38
2017-04-21T02:49:00.110Z,30.97
2017-04-21T02:49:59.242Z,31.07
2017-04-21T02:50:58.374Z,29.32
2017-04-21T02:51:57.451Z,30.15
2017-04-21T02:52:56.610Z,29.72
2017-04-21T02:53:55.718Z,29.90
2017-04-21T02:54:54.810Z,29.93
2017-04-21T02:55:53.906Z,31.18
2017-04-21T02:56:53.054Z,31.60
2017-04-21T02:57:52.151Z,29.80
2017-04-21T02:58:51.291Z,29.85
2017-04-21T02:59:50.401Z,28.90
2017-04-21T03:00:49.518Z,31.13
2017-04-21T03:01:48.646Z,30.93
2017-04-21T03:02:47.818Z,31.23
2017-04-21T03:03:46.951Z,28.85
2017-04-21T03:04:46.083Z,27.32
2017-04-21T03:05:45.278Z,29.68
2017-04-21T03:06:44.466Z,28.62
2017-04-21T03:07:43.611Z,28.07
2017-04-21T03:08:42.729Z,30.50
2017-04-21T03:09:41.878Z,29.05
2017-04-21T03:10:41.020Z,31.12
2017-04-21T03:11:40.154Z,29.85
2017-04-21T03:12:39.268Z,30.97
2017-04-21T03:13:38.423Z,30.58
2017-04-21T03:14:37.566Z,32.00
2017-04-21T03:15:37.430Z,29.20
2017-04-21T03:16:36.587Z,31.15
2017-04-21T03:17:35.742Z,29.98
2017-04-21T03:18:34.867Z,28.15
2017-04-21T03:19:34.030Z,26.30
2017-04-21T03:20:33.170Z,27.53
2017-04-21T03:21:32.343Z,29.95
2017-04-21T03:22:31.514Z,28.37
2017-04-21T03:23:30.656Z,28.83
2017-04-21T03:24:29.810Z,29.63
2017-04-21T03:25:29.039Z,28.13
2017-04-21T03:26:28.121Z,29.28
2017-04-21T03:27:27.214Z,29.57
2017-04-21T03:28:26.318Z,29.12
2017-04-21T03:29:25.452Z,30.13
2017-04-21T03:30:24.563Z,29.03
2017-04-21T03:31:24.447Z,30.82
2017-04-21T03:32:23.558Z,31.88
2017-04-21T03:33:22.670Z,31.70
2017-04-21T03:34:21.786Z,30.60
2017-04-21T03:35:20.966Z,28.68
2017-04-21T03:36:20.070Z,30.08
2017-04-21T03:37:19.230Z,28.70
2017-04-21T03:38:18.318Z,28.60
2017-04-21T03:39:17.458Z,30.10
2017-04-21T03:40:16.606Z,30.65
2017-04-21T03:41:15.742Z,29.33
2017-04-21T03:42:21.667Z,29.08
2017-04-21T03:43:20.766Z,29.72
2017-04-21T03:44:19.886Z,29.13
2017-04-21T03:45:19.028Z,32.30
2017-04-21T03:46:18.161Z,29.27
2017-04-21T03:47:17.314Z,31.38
2017-04-21T03:48:16.483Z,31.27
2017-04-21T03:49:16.347Z,31.65
2017-04-21T03:50:15.479Z,29.62
2017-04-21T03:51:14.610Z,29.50
2017-04-21T03:52:13.795Z,32.03
2017-04-21T03:53:12.979Z,31.58
2017-04-21T03:54:12.099Z,30.70
2017-04-21T03:55:11.249Z,31.38
2017-04-21T03:56:10.391Z,33.45
2017-04-21T03:57:09.538Z,31.33
2017-04-21T03:58:08.750Z,31.83
2017-04-21T03:59:07.886Z,31.65
2017-04-21T04:00:07.773Z,30.98
2017-04-21T04:01:06.886Z,32.93
2017-04-21T04:02:06.048Z,31.53
2017-04-21T04:03:05.934Z,32.40
2017-04-21T04:04:05.091Z,31.62
2017-04-21T04:05:04.250Z,29.38
2017-04-21T04:06:03.390Z,34.35
2017-04-21T04:07:02.550Z,31.33
2017-04-21T04:08:01.699Z,33.68
2017-04-21T04:09:00.830Z,30.43
2017-04-21T04:09:59.985Z,29.27
2017-04-21T04:10:59.147Z,33.00
2017-04-21T04:11:58.286Z,33.98
2017-04-21T04:12:57.386Z,31.58
2017-04-21T04:13:56.503Z,30.30
2017-04-21T04:14:55.651Z,32.77
2017-04-21T04:15:54.758Z,32.62
2017-04-21T04:16:56.990Z,31.42
2017-04-21T04:17:56.147Z,28.07
2017-04-21T04:18:55.267Z,30.50
2017-04-21T04:19:54.406Z,29.20
2017-04-21T04:20:53.495Z,32.37
2017-04-21T04:21:52.630Z,32.05
2017-04-21T04:22:51.747Z,31.40
2017-04-21T04:23:50.895Z,33.95
2017-04-21T04:24:50.014Z,34.00
2017-04-21T04:25:49.490Z,30.07
2017-04-21T04:26:48.602Z,31.03
2017-04-21T04:27:47.766Z,32.20
2017-04-21T04:28:46.918Z,32.92
2017-04-21T04:29:46.030Z,33.22
2017-04-21T04:30:45.199Z,32.38
2017-04-21T04:31:43.587Z,31.50
2017-04-21T04:32:42.771Z,33.30
2017-04-21T04:33:41.922Z,31.47
2017-04-21T04:34:41.047Z,33.37
2017-04-21T04:35:40.184Z,31.60
2017-04-21T04:36:39.347Z,34.30
2017-04-21T04:37:38.458Z,32.23
2017-04-21T04:38:37.554Z,31.93
2017-04-21T04:39:36.655Z,34.20
2017-04-21T04:40:35.802Z,32.82
2017-04-21T04:41:34.955Z,33.93
2017-04-21T04:42:34.828Z,30.57
2017-04-21T04:43:33.947Z,32.15
2017-04-21T04:44:33.334Z,31.18
2017-04-21T04:45:32.464Z,33.12
2017-04-21T04:46:31.596Z,32.18
2017-04-21T04:47:31.039Z,31.88
2017-04-21T04:48:30.209Z,32.72
2017-04-21T04:49:29.333Z,33.08
2017-04-21T04:50:28.547Z,33.22
2017-04-21T04:51:27.648Z,33.90
2017-04-21T04:52:26.754Z,30.47
2017-04-21T04:53:25.902Z,33.18
2017-04-21T04:54:25.030Z,33.95
2017-04-21T04:55:24.150Z,33.08
2017-04-21T04:56:23.261Z,33.35
2017-04-21T04:57:22.375Z,32.63
2017-04-21T04:58:21.475Z,31.08
2017-04-21T04:59:20.639Z,34.80
2017-04-21T05:00:19.794Z,33.82
2017-04-21T05:01:18.918Z,34.32
2017-04-21T05:02:18.050Z,34.68
2017-04-21T05:03:17.145Z,33.50
2017-04-21T05:04:17.015Z,35.15
2017-04-21T05:05:16.433Z,34.20
2017-04-21T05:07:40.338Z,35.13
2017-04-21T05:08:40.226Z,35.42
2017-04-21T05:09:39.434Z,34.67
2017-04-21T05:10:38.563Z,34.33
2017-04-21T05:11:37.734Z,34.22
2017-04-21T05:12:36.869Z,32.93
2017-04-21T05:13:35.971Z,33.35
2017-04-21T05:14:35.078Z,33.33
2017-04-21T05:15:34.190Z,32.38
2017-04-21T05:16:33.306Z,35.02
2017-04-21T05:17:32.438Z,35.02
2017-04-21T05:18:31.923Z,35.30
2017-04-21T05:19:31.042Z,34.48
2017-04-21T05:20:30.276Z,36.15
2017-04-21T05:21:29.410Z,33.13
2017-04-21T05:22:28.527Z,32.80
2017-04-21T05:23:27.637Z,35.18
2017-04-21T05:24:26.745Z,36.57
2017-04-21T05:25:25.846Z,35.25
2017-04-21T05:26:25.018Z,31.83
2017-04-21T05:27:24.094Z,35.33
2017-04-21T05:28:23.219Z,33.13
2017-04-21T05:29:22.342Z,34.15
2017-04-21T05:30:21.590Z,31.12
2017-04-21T05:31:20.707Z,31.50
2017-04-21T05:32:19.851Z,31.52
2017-04-21T05:33:18.973Z,35.80
2017-04-21T05:34:18.118Z,32.85
2017-04-21T05:35:17.266Z,31.12
2017-04-21T05:36:17.118Z,31.22
2017-04-21T05:37:16.295Z,33.72
2017-04-21T05:38:16.171Z,33.92
2017-04-21T05:39:15.275Z,31.63
2017-04-21T05:40:14.442Z,31.63
2017-04-21T05:41:13.575Z,31.33
2017-04-21T05:42:12.694Z,31.88
2017-04-21T05:43:11.876Z,32.42
2017-04-21T05:44:10.994Z,30.32
2017-04-21T05:45:10.103Z,31.32
2017-04-21T05:46:09.230Z,31.85
2017-04-21T05:47:08.406Z,29.95
2017-04-21T05:48:07.523Z,27.93
2017-04-21T05:49:06.646Z,29.03
2017-04-21T05:50:05.774Z,29.32
2017-04-21T05:51:04.907Z,33.12
2017-04-21T05:52:04.042Z,29.63
2017-04-21T05:53:03.243Z,29.93
2017-04-21T05:54:02.363Z,28.40
2017-04-21T05:55:01.454Z,29.52
2017-04-21T05:56:00.606Z,30.68
2017-04-21T05:56:59.718Z,30.45
2017-04-21T05:57:58.883Z,29.50
2017-04-21T05:58:58.046Z,29.45
2017-04-21T05:59:57.410Z,29.55
2017-04-21T06:00:56.577Z,29.47
2017-04-21T06:01:55.683Z,31.27
2017-04-21T06:02:54.807Z,30.90
2017-04-21T06:03:53.942Z,29.12
2017-04-21T06:04:53.137Z,27.60
2017-04-21T06:05:52.246Z,28.48
2017-04-21T06:06:51.351Z,28.05
2017-04-21T06:07:50.498Z,29.45
2017-04-21T06:08:49.616Z,29.65
2017-04-21T06:09:48.735Z,28.87
2017-04-21T06:10:48.688Z,29.00
2017-04-21T06:11:47.838Z,28.82
2017-04-21T06:12:46.931Z,29.73
2017-04-21T06:13:46.032Z,29.05
2017-04-21T06:14:45.150Z,30.30
2017-04-21T06:15:44.286Z,28.98
2017-04-21T06:16:43.466Z,29.95
2017-04-21T06:17:42.606Z,28.70
2017-04-21T06:18:41.903Z,28.45
2017-04-21T06:19:41.066Z,30.57
2017-04-21T06:20:40.271Z,28.92
2017-04-21T06:21:39.375Z,28.80
2017-04-21T06:22:38.546Z,27.78
2017-04-21T06:23:37.639Z,29.02
2017-04-21T06:24:36.772Z,28.88
2017-04-21T06:25:35.900Z,28.47
2017-04-21T06:26:34.998Z,27.02
2017-04-21T06:27:34.114Z,28.67
2017-04-21T06:28:34.070Z,27.68
2017-04-21T06:29:33.218Z,29.15
2017-04-21T06:30:32.338Z,28.15
2017-04-21T06:31:31.479Z,30.70
2017-04-21T06:32:30.619Z,29.60
2017-04-21T06:33:29.730Z,30.07
2017-04-21T06:34:28.906Z,28.52
2017-04-21T06:35:28.043Z,27.73
2017-04-21T06:36:27.186Z,28.25
2017-04-21T06:37:26.323Z,27.95
2017-04-21T06:38:25.451Z,30.33
2017-04-21T06:39:24.544Z,29.83
2017-04-21T06:40:23.715Z,28.85
2017-04-21T06:41:22.803Z,27.45
2017-04-21T06:42:21.930Z,30.00
2017-04-21T06:43:21.007Z,28.73
2017-04-21T06:44:20.112Z,29.77
2017-04-21T06:45:19.235Z,26.60
2017-04-21T06:46:18.426Z,28.43
2017-04-21T06:47:17.538Z,29.58
2017-04-21T06:48:16.659Z,29.82
2017-04-21T06:49:15.794Z,29.82
2017-04-21T06:50:14.942Z,27.55
2017-04-21T06:51:14.099Z,30.28
2017-04-21T06:52:13.287Z,26.95
2017-04-21T06:53:12.423Z,30.58
2017-04-21T06:54:11.558Z,26.47
2017-04-21T06:55:10.656Z,29.63
2017-04-21T06:56:10.506Z,28.23
2017-04-21T06:57:09.618Z,29.85
2017-04-21T06:58:08.782Z,27.05
2017-04-21T06:59:08.627Z,28.65
2017-04-21T07:00:07.739Z,28.43
2017-04-21T07:01:06.897Z,29.43
2017-04-21T07:02:06.035Z,29.32
2017-04-21T07:03:05.199Z,27.15
2017-04-21T07:04:04.406Z,29.38
2017-04-21T07:05:03.491Z,28.68
2017-04-21T07:06:02.676Z,29.73
2017-04-21T07:07:02.547Z,27.68
2017-04-21T07:08:01.699Z,26.97
2017-04-21T07:09:00.802Z,27.92
2017-04-21T07:10:00.519Z,26.07
2017-04-21T07:10:59.632Z,27.78
2017-04-21T07:11:58.796Z,27.32
2017-04-21T07:12:58.647Z,28.98
2017-04-21T07:13:57.742Z,29.72
2017-04-21T07:14:56.886Z,27.68
2017-04-21T07:15:56.046Z,26.72
2017-04-21T07:16:55.191Z,27.47
2017-04-21T07:17:54.320Z,28.40
2017-04-21T07:18:53.638Z,29.28
2017-04-21T07:19:52.755Z,28.33
2017-04-21T07:20:51.942Z,29.03
2017-04-21T07:21:51.878Z,32.07
2017-04-21T07:22:50.963Z,29.42
2017-04-21T07:23:50.067Z,30.43
2017-04-21T07:24:49.231Z,29.52
2017-04-21T07:25:48.378Z,27.95
2017-04-21T07:26:47.482Z,27.85
2017-04-21T07:27:46.728Z,27.72
2017-04-21T07:28:45.875Z,26.10
2017-04-21T07:29:44.982Z,30.45
2017-04-21T07:30:44.859Z,27.17
2017-04-21T07:31:44.003Z,27.82
2017-04-21T07:32:43.199Z,29.18
2017-04-21T07:33:42.383Z,28.65
2017-04-21T07:34:41.522Z,27.60
2017-04-21T07:36:39.833Z,28.47
2017-04-21T07:37:38.944Z,28.10
2017-04-21T07:39:37.578Z,29.38
2017-04-21T07:40:36.720Z,27.83
2017-04-21T07:41:35.826Z,28.40
2017-04-21T07:42:34.915Z,26.97
2017-04-21T07:43:34.819Z,28.67
2017-04-21T07:44:34.040Z,28.82
2017-04-21T07:45:33.246Z,27.65
2017-04-21T07:46:32.382Z,27.78
2017-04-21T07:47:31.503Z,26.10
2017-04-21T07:48:30.630Z,27.42
2017-04-21T07:49:29.771Z,27.72
2017-04-21T07:50:28.900Z,25.98
2017-04-21T07:51:28.046Z,28.92
2017-04-21T07:52:27.178Z,27.95
2017-04-21T07:53:26.311Z,29.37
2017-04-21T07:54:25.447Z,28.70
2017-04-21T07:55:24.582Z,28.72
2017-04-21T07:56:23.706Z,28.63
2017-04-21T07:57:23.639Z,28.77
2017-04-21T07:58:22.755Z,25.90
2017-04-21T07:59:21.863Z,27.28
2017-04-21T08:01:21.623Z,29.05
2017-04-21T08:02:20.759Z,28.85
2017-04-21T08:03:19.927Z,28.90
2017-04-21T08:04:19.049Z,28.97
2017-04-21T08:05:18.158Z,27.90
2017-04-21T08:06:17.287Z,27.38
2017-04-21T08:07:16.520Z,28.58
2017-04-21T08:08:15.674Z,29.63
2017-04-21T08:09:14.854Z,26.30
2017-04-21T08:10:13.979Z,27.97
2017-04-21T08:11:13.146Z,28.42
2017-04-21T08:12:12.339Z,27.73
2017-04-21T08:13:12.322Z,28.77
2017-04-21T08:14:11.494Z,28.85
2017-04-21T08:15:10.702Z,26.92
2017-04-21T08:16:09.862Z,27.33
2017-04-21T08:17:09.017Z,27.88
2017-04-21T08:18:08.122Z,29.95
2017-04-21T08:19:07.302Z,26.03
2017-04-21T08:20:06.426Z,27.73
2017-04-21T08:21:05.610Z,27.77
2017-04-21T08:22:04.803Z,26.85
2017-04-21T08:23:03.975Z,26.65
2017-04-21T08:24:03.208Z,27.37
2017-04-21T08:25:02.346Z,26.37
2017-04-21T08:26:01.490Z,29.95
2017-04-21T08:27:00.646Z,27.32
2017-04-21T08:27:59.747Z,27.08
2017-04-21T08:28:58.878Z,25.68
2017-04-21T08:29:57.986Z,27.90
2017-04-21T08:30:57.115Z,29.18
2017-04-21T08:31:56.245Z,27.80
2017-04-21T08:32:55.406Z,28.43
2017-04-21T08:33:54.546Z,27.77
2017-04-21T08:34:54.370Z,27.07
2017-04-21T08:35:53.478Z,25.50
2017-04-21T08:36:52.638Z,25.92
2017-04-21T08:37:51.760Z,25.85
2017-04-21T08:38:50.966Z,27.30
2017-04-21T08:39:50.079Z,26.47
2017-04-21T08:40:49.182Z,26.35
2017-04-21T08:41:48.287Z,29.40
2017-04-21T08:42:47.411Z,27.00
2017-04-21T08:43:46.522Z,27.48
2017-04-21T08:44:45.714Z,27.88
2017-04-21T08:45:44.891Z,26.72
2017-04-21T08:46:44.038Z,25.82
2017-04-21T08:47:43.199Z,27.47
2017-04-21T08:48:42.383Z,26.68
2017-04-21T08:49:41.566Z,27.27
2017-04-21T08:51:40.588Z,27.73
2017-04-21T08:52:39.730Z,25.87
2017-04-21T08:53:38.830Z,26.35
2017-04-21T08:54:37.958Z,24.87
2017-04-21T08:55:37.098Z,26.92
2017-04-21T08:56:36.294Z,28.02
2017-04-21T08:57:35.431Z,26.22
2017-04-21T08:58:34.566Z,27.70
2017-04-21T08:59:33.666Z,27.53
2017-04-21T09:00:33.526Z,28.08
2017-04-21T09:01:33.029Z,25.45
2017-04-21T09:02:32.254Z,25.08
2017-04-21T09:03:31.411Z,26.12
2017-04-21T09:04:30.551Z,24.95
2017-04-21T09:05:29.652Z,26.85
2017-04-21T09:06:28.764Z,24.78
2017-04-21T09:07:28.742Z,27.67
2017-04-21T09:08:28.780Z,26.45
2017-04-21T09:09:27.895Z,25.13
2017-04-21T09:10:27.039Z,26.72
2017-04-21T09:11:26.165Z,27.35
2017-04-21T09:12:25.619Z,27.73
2017-04-21T09:13:24.718Z,27.25
2017-04-21T09:14:23.906Z,25.80
2017-04-21T09:15:23.014Z,25.25
2017-04-21T09:16:22.137Z,28.32
2017-04-21T09:17:21.238Z,28.22
2017-04-21T09:18:20.414Z,27.15
2017-04-21T09:19:19.691Z,26.10
2017-04-21T09:20:19.204Z,27.38
2017-04-21T09:21:18.314Z,26.50
2017-04-21T09:22:17.467Z,25.35
2017-04-21T09:23:16.603Z,26.48
2017-04-21T09:24:15.727Z,26.27
2017-04-21T09:25:14.874Z,27.20
2017-04-21T09:26:14.152Z,25.82
2017-04-21T09:27:13.298Z,26.22
2017-04-21T09:28:12.447Z,25.73
2017-04-21T09:29:11.615Z,28.08
2017-04-21T09:30:10.788Z,27.80
2017-04-21T09:31:09.902Z,26.30
2017-04-21T09:32:09.083Z,28.42
2017-04-21T09:34:33.643Z,28.78
2017-04-21T09:35:13.081Z,27.95
2017-04-21T09:36:17.892Z,28.85
2017-04-21T09:37:12.310Z,28.25
2017-04-21T09:38:11.754Z,27.47
2017-04-21T09:39:10.867Z,28.87
2017-04-21T09:40:10.012Z,26.75
2017-04-21T09:41:09.123Z,28.57
2017-04-21T09:42:08.271Z,27.73
2017-04-21T09:43:20.906Z,27.08
2017-04-21T09:44:06.579Z,28.10
2017-04-21T09:45:05.758Z,30.08
2017-04-21T09:46:04.966Z,28.25
2017-04-21T09:47:04.096Z,26.80
2017-04-21T09:48:03.222Z,28.68
2017-04-21T09:49:02.406Z,27.30
2017-04-21T09:50:01.535Z,27.12
2017-04-21T09:51:00.623Z,26.92
2017-04-21T09:52:37.149Z,28.87
2017-04-21T09:57:18.808Z,29.48
2017-04-21T09:57:33.618Z,28.43
2017-04-21T09:58:09.099Z,27.70
2017-04-21T09:58:30.466Z,27.53
2017-04-21T09:59:26.132Z,28.80
2017-04-21T10:00:04.612Z,25.95
2017-04-21T10:01:22.471Z,25.68
2017-04-21T10:02:28.201Z,27.72
2017-04-21T10:05:50.607Z,27.28
2017-04-21T10:06:12.463Z,28.63
2017-04-21T10:06:18.227Z,26.43
2017-04-21T10:06:19.762Z,28.58
2017-04-21T10:06:55.134Z,28.60
2017-04-21T10:08:11.831Z,26.32
2017-04-21T10:08:22.021Z,27.57
2017-04-21T10:08:33.028Z,26.92
2017-04-21T10:08:48.771Z,29.05
2017-04-21T10:09:47.927Z,26.67
2017-04-21T10:10:47.047Z,28.12
2017-04-21T10:11:46.258Z,26.93
2017-04-21T10:12:45.487Z,28.92
2017-04-21T10:13:44.587Z,28.77
2017-04-21T10:14:43.726Z,28.23
2017-04-21T10:15:42.931Z,28.03
2017-04-21T10:16:43.682Z,27.67
2017-04-21T10:17:42.830Z,27.60
2017-04-21T10:18:42.150Z,30.05
2017-04-21T10:19:41.378Z,27.48
2017-04-21T10:20:40.519Z,28.93
2017-04-21T10:21:39.626Z,27.97
2017-04-21T10:22:38.726Z,28.68
2017-04-21T10:23:37.834Z,27.78
2017-04-21T10:24:36.982Z,29.27
2017-04-21T10:25:36.090Z,31.00
2017-04-21T10:26:35.198Z,27.85
2017-04-21T10:27:34.342Z,27.72
2017-04-21T10:28:33.542Z,28.98
2017-04-21T10:29:32.764Z,27.37
2017-04-21T10:30:31.962Z,26.13
2017-04-21T10:31:31.066Z,29.85
2017-04-21T10:32:30.943Z,27.33
2017-04-21T10:33:30.074Z,29.95
2017-04-21T10:34:29.194Z,32.12
2017-04-21T10:35:28.286Z,29.28
2017-04-21T10:36:27.503Z,30.13
2017-04-21T10:37:26.615Z,29.35
2017-04-21T10:38:25.755Z,29.40
2017-04-21T10:39:24.856Z,29.05
2017-04-21T10:40:24.035Z,28.80
2017-04-21T10:41:23.163Z,27.67
2017-04-21T10:42:22.298Z,30.05
2017-04-21T10:43:21.410Z,26.97
2017-04-21T10:44:20.525Z,29.78
2017-04-21T10:45:19.648Z,29.75
2017-04-21T10:46:18.834Z,28.57
2017-04-21T10:47:17.938Z,30.45
2017-04-21T10:48:17.111Z,31.13
2017-04-21T10:49:16.663Z,30.42
2017-04-21T10:50:15.810Z,29.82
2017-04-21T10:51:14.157Z,30.68
2017-04-21T10:52:13.302Z,29.60
2017-04-21T10:53:12.467Z,28.85
2017-04-21T10:54:11.756Z,30.07
2017-04-21T10:55:10.877Z,31.28
2017-04-21T10:56:10.768Z,32.18
2017-04-21T10:57:09.866Z,29.25
2017-04-21T10:58:08.974Z,32.00
2017-04-21T10:59:08.171Z,30.52
2017-04-21T11:00:07.402Z,30.95
2017-04-21T11:01:06.522Z,29.27
2017-04-21T11:02:05.635Z,30.75
2017-04-21T11:03:04.751Z,31.22
2017-04-21T11:04:03.920Z,30.75
2017-04-21T11:05:03.047Z,30.98
2017-04-21T11:06:02.262Z,31.97
2017-04-21T11:07:01.414Z,32.98
2017-04-21T11:08:00.527Z,31.90
2017-04-21T11:09:00.647Z,29.57
2017-04-21T11:09:59.790Z,31.00
2017-04-21T11:10:58.957Z,31.38
2017-04-21T11:11:58.146Z,31.78
2017-04-21T11:12:57.263Z,29.88
2017-04-21T11:13:56.368Z,33.78
2017-04-21T11:14:55.778Z,32.35
2017-04-21T11:15:54.902Z,29.38
2017-04-21T11:16:54.058Z,29.77
2017-04-21T11:17:53.183Z,29.18
2017-04-21T11:18:52.300Z,29.67
2017-04-21T11:19:52.170Z,29.03
2017-04-21T11:20:51.315Z,29.98
2017-04-21T11:21:50.490Z,29.75
2017-04-21T11:22:49.662Z,30.12
2017-04-21T11:23:48.874Z,31.43
2017-04-21T11:24:48.109Z,28.78
2017-04-21T11:25:47.234Z,31.13
2017-04-21T11:26:47.122Z,32.05
2017-04-21T11:27:46.364Z,31.58
2017-04-21T11:28:45.550Z,31.75
2017-04-21T11:29:44.738Z,33.75
2017-04-21T11:30:43.911Z,29.63
2017-04-21T11:31:43.028Z,31.48
2017-04-21T11:32:42.266Z,29.27
2017-04-21T11:33:41.408Z,31.73
2017-04-21T11:34:40.556Z,30.27
2017-04-21T11:35:39.742Z,31.15
2017-04-21T11:36:38.826Z,31.88
2017-04-21T11:37:37.951Z,31.55
2017-04-21T11:38:37.102Z,32.82
2017-04-21T11:39:36.226Z,29.55
2017-04-21T11:40:35.426Z,31.03
2017-04-21T11:41:34.582Z,31.43
2017-04-21T11:42:33.750Z,31.42
2017-04-21T11:43:32.927Z,31.85
2017-04-21T11:44:32.342Z,30.87
2017-04-21T11:45:32.258Z,30.28
2017-04-21T11:46:31.370Z,31.27
2017-04-21T11:47:30.530Z,30.07
2017-04-21T11:48:29.635Z,29.87
2017-04-21T11:49:28.758Z,30.63
2017-04-21T11:50:27.897Z,28.58
2017-04-21T11:51:27.018Z,32.63
2017-04-21T11:52:26.866Z,29.25
2017-04-21T11:53:26.019Z,34.22
2017-04-21T11:54:25.147Z,33.28
2017-04-21T11:55:24.282Z,31.07
2017-04-21T11:56:23.385Z,30.87
2017-04-21T11:57:22.498Z,31.97
2017-04-21T11:58:21.594Z,28.57
2017-04-21T11:59:21.513Z,30.40
2017-04-21T12:00:20.651Z,31.10
2017-04-21T12:01:19.799Z,32.10
2017-04-21T12:02:18.914Z,30.75
2017-04-21T12:03:18.066Z,30.87
2017-04-21T12:04:17.205Z,31.12
2017-04-21T12:05:16.412Z,31.48
2017-04-21T12:06:15.592Z,31.40
2017-04-21T12:07:14.758Z,29.53
2017-04-21T12:08:14.002Z,30.85
2017-04-21T12:09:13.155Z,30.42
2017-04-21T12:10:12.662Z,29.22
2017-04-21T12:11:11.898Z,29.28
2017-04-21T12:12:11.043Z,30.77
2017-04-21T12:13:10.134Z,30.93
2017-04-21T12:14:09.251Z,28.62
2017-04-21T12:15:08.367Z,30.78
2017-04-21T12:16:07.516Z,32.00
2017-04-21T12:17:06.666Z,30.78
2017-04-21T12:18:05.812Z,32.12
2017-04-21T12:19:04.895Z,31.30
2017-04-21T12:20:04.223Z,30.68
2017-04-21T12:21:03.354Z,30.38
2017-04-21T12:22:02.506Z,30.98
2017-04-21T12:23:01.686Z,31.47
2017-04-21T12:24:00.778Z,28.97
2017-04-21T12:24:59.922Z,28.90
2017-04-21T12:25:59.068Z,31.80
2017-04-21T12:26:58.190Z,30.18
2017-04-21T12:27:57.995Z,30.93
2017-04-21T12:28:57.131Z,30.85
2017-04-21T12:29:56.618Z,32.27
2017-04-21T12:30:55.774Z,28.13
2017-04-21T12:31:54.882Z,30.92
2017-04-21T12:32:53.994Z,31.18
2017-04-21T12:33:53.123Z,30.83
2017-04-21T12:34:52.299Z,30.67
2017-04-21T12:35:52.154Z,30.97
2017-04-21T12:36:51.274Z,29.67
2017-04-21T12:37:50.483Z,30.90
2017-04-21T12:38:49.633Z,29.47
2017-04-21T12:39:48.777Z,31.52
2017-04-21T12:40:47.970Z,28.63
2017-04-21T12:41:47.143Z,29.78
2017-04-21T12:42:46.278Z,29.07
2017-04-21T12:43:45.422Z,29.72
2017-04-21T12:44:44.556Z,29.77
2017-04-21T12:45:43.798Z,31.68
2017-04-21T12:46:43.030Z,29.60
2017-04-21T12:47:42.135Z,28.90
2017-04-21T12:48:41.255Z,32.38
2017-04-21T12:49:40.358Z,29.58
2017-04-21T12:50:39.463Z,29.17